sensor_id;sensor_type;location;lat;lon;timestamp;P1;durP1;ratioP1;P2;durP2;ratioP2
63690;SDS011;49837;57.280;27.070;2022-12-13T00:00:20;4.2;;;2.9;;
63690;SDS011;49837;57.280;27.070;2022-12-13T00:01:20;4.2;;;2.8;;
63690;SDS011;49837;57.280;27.070;2022-12-13T00:02:21;4.7;;;2.9;;
63690;SDS011;49837;57.280;27.070;2022-12-13T00:03:21;3.4;;;2.8;;
63690;SDS011;49837;57.280;27.070;2022-12-13T00:04:22;4.0;;;2.9;;
63690;SDS011;49837;57.280;27.070;2022-12-13T00:05:22;3.9;;;2.9;;
63690;SDS011;49837;57.280;27.070;2022-12-13T00:06:22;4.1;;;3.0;;
63690;SDS011;49837;57.280;27.070;2022-12-13T00:07:23;4.2;;;3.1;;
63690;SDS011;49837;57.280;27.070;2022-12-13T00:08:23;4.3;;;2.9;;
63690;SDS011;49837;57.280;27.070;2022-12-13T00:09:23;4.2;;;3.1;;
63690;SDS011;49837;57.280;27.070;2022-12-13T00:10:24;3.8;;;2.7;;
63690;SDS011;49837;57.280;27.070;2022-12-13T00:11:24;4.2;;;3.0;;
63690;SDS011;49837;57.280;27.070;2022-12-13T00:12:25;3.8;;;2.7;;
63690;SDS011;49837;57.280;27.070;2022-12-13T00:13:25;3.7;;;2.8;;
63690;SDS011;49837;57.280;27.070;2022-12-13T00:14:25;4.3;;;2.9;;
63690;SDS011;49837;57.280;27.070;2022-12-13T00:15:26;4.1;;;2.9;;
63690;SDS011;49837;57.280;27.070;2022-12-13T00:16:26;4.5;;;3.0;;
63690;SDS011;49837;57.280;27.070;2022-12-13T00:17:27;4.0;;;2.8;;
63690;SDS011;49837;57.280;27.070;2022-12-13T00:18:27;3.7;;;2.8;;
63690;SDS011;49837;57.280;27.070;2022-12-13T00:19:27;4.0;;;2.8;;
63690;SDS011;49837;57.280;27.070;2022-12-13T00:20:28;3.4;;;2.7;;
63690;SDS011;49837;57.280;27.070;2022-12-13T00:21:29;4.0;;;2.9;;
63690;SDS011;49837;57.280;27.070;2022-12-13T00:22:29;3.6;;;2.7;;
63690;SDS011;49837;57.280;27.070;2022-12-13T00:23:29;4.4;;;2.9;;
63690;SDS011;49837;57.280;27.070;2022-12-13T00:24:29;4.2;;;2.9;;
63690;SDS011;49837;57.280;27.070;2022-12-13T00:25:30;4.4;;;3.0;;
63690;SDS011;49837;57.280;27.070;2022-12-13T00:26:30;4.0;;;2.7;;
63690;SDS011;49837;57.280;27.070;2022-12-13T00:27:30;4.2;;;3.0;;
63690;SDS011;49837;57.280;27.070;2022-12-13T00:28:31;4.2;;;2.9;;
63690;SDS011;49837;57.280;27.070;2022-12-13T00:29:31;3.6;;;2.8;;
63690;SDS011;49837;57.280;27.070;2022-12-13T00:30:32;3.8;;;2.8;;
63690;SDS011;49837;57.280;27.070;2022-12-13T00:31:32;4.0;;;3.0;;
63690;SDS011;49837;57.280;27.070;2022-12-13T00:32:35;3.7;;;2.7;;
63690;SDS011;49837;57.280;27.070;2022-12-13T00:33:38;4.2;;;2.9;;
63690;SDS011;49837;57.280;27.070;2022-12-13T00:34:35;3.9;;;2.8;;
63690;SDS011;49837;57.280;27.070;2022-12-13T00:35:39;4.0;;;2.9;;
63690;SDS011;49837;57.280;27.070;2022-12-13T00:36:37;3.3;;;2.6;;
63690;SDS011;49837;57.280;27.070;2022-12-13T00:37:38;3.6;;;2.6;;
63690;SDS011;49837;57.280;27.070;2022-12-13T00:38:38;3.7;;;2.6;;
63690;SDS011;49837;57.280;27.070;2022-12-13T00:39:38;4.2;;;2.8;;
63690;SDS011;49837;57.280;27.070;2022-12-13T00:40:39;3.5;;;2.7;;
63690;SDS011;49837;57.280;27.070;2022-12-13T00:41:39;4.3;;;3.1;;
63690;SDS011;49837;57.280;27.070;2022-12-13T00:42:39;3.9;;;2.8;;
63690;SDS011;49837;57.280;27.070;2022-12-13T00:43:40;3.5;;;2.8;;
63690;SDS011;49837;57.280;27.070;2022-12-13T00:44:40;4.1;;;3.0;;
63690;SDS011;49837;57.280;27.070;2022-12-13T00:45:41;4.5;;;2.8;;
63690;SDS011;49837;57.280;27.070;2022-12-13T00:46:41;3.8;;;2.8;;
63690;SDS011;49837;57.280;27.070;2022-12-13T00:47:41;4.5;;;2.9;;
63690;SDS011;49837;57.280;27.070;2022-12-13T00:48:42;4.2;;;3.0;;
63690;SDS011;49837;57.280;27.070;2022-12-13T00:49:42;4.0;;;2.9;;
63690;SDS011;49837;57.280;27.070;2022-12-13T00:50:43;3.9;;;2.9;;
63690;SDS011;49837;57.280;27.070;2022-12-13T00:51:43;4.3;;;2.9;;
63690;SDS011;49837;57.280;27.070;2022-12-13T00:52:43;4.0;;;2.9;;
63690;SDS011;49837;57.280;27.070;2022-12-13T00:53:44;4.2;;;2.8;;
63690;SDS011;49837;57.280;27.070;2022-12-13T00:54:44;4.3;;;2.9;;
63690;SDS011;49837;57.280;27.070;2022-12-13T00:55:45;3.8;;;2.9;;
63690;SDS011;49837;57.280;27.070;2022-12-13T00:56:45;4.2;;;2.9;;
63690;SDS011;49837;57.280;27.070;2022-12-13T00:57:45;4.4;;;3.0;;
63690;SDS011;49837;57.280;27.070;2022-12-13T00:58:46;4.5;;;2.8;;
63690;SDS011;49837;57.280;27.070;2022-12-13T00:59:48;3.8;;;2.8;;
63690;SDS011;49837;57.280;27.070;2022-12-13T01:00:48;3.4;;;2.8;;
63690;SDS011;49837;57.280;27.070;2022-12-13T01:01:49;3.5;;;2.7;;
63690;SDS011;49837;57.280;27.070;2022-12-13T01:02:49;3.7;;;2.8;;
63690;SDS011;49837;57.280;27.070;2022-12-13T01:03:50;3.6;;;2.6;;
63690;SDS011;49837;57.280;27.070;2022-12-13T01:04:50;3.8;;;3.0;;
63690;SDS011;49837;57.280;27.070;2022-12-13T01:05:50;3.1;;;2.5;;
63690;SDS011;49837;57.280;27.070;2022-12-13T01:06:53;3.9;;;2.7;;
63690;SDS011;49837;57.280;27.070;2022-12-13T01:07:53;3.7;;;2.7;;
63690;SDS011;49837;57.280;27.070;2022-12-13T01:08:53;3.9;;;3.0;;
63690;SDS011;49837;57.280;27.070;2022-12-13T01:09:56;3.6;;;2.7;;
63690;SDS011;49837;57.280;27.070;2022-12-13T01:10:54;3.8;;;2.9;;
63690;SDS011;49837;57.280;27.070;2022-12-13T01:11:58;4.3;;;3.0;;
63690;SDS011;49837;57.280;27.070;2022-12-13T01:12:57;3.3;;;2.6;;
63690;SDS011;49837;57.280;27.070;2022-12-13T01:13:57;4.2;;;2.9;;
63690;SDS011;49837;57.280;27.070;2022-12-13T01:14:57;3.5;;;2.8;;
63690;SDS011;49837;57.280;27.070;2022-12-13T01:16:00;4.5;;;2.6;;
63690;SDS011;49837;57.280;27.070;2022-12-13T01:17:01;3.8;;;2.8;;
63690;SDS011;49837;57.280;27.070;2022-12-13T01:18:01;3.8;;;2.7;;
63690;SDS011;49837;57.280;27.070;2022-12-13T01:19:01;4.2;;;2.7;;
63690;SDS011;49837;57.280;27.070;2022-12-13T01:20:02;3.5;;;2.6;;
63690;SDS011;49837;57.280;27.070;2022-12-13T01:21:12;3.8;;;2.8;;
63690;SDS011;49837;57.280;27.070;2022-12-13T01:22:04;4.0;;;2.6;;
63690;SDS011;49837;57.280;27.070;2022-12-13T01:23:05;3.6;;;2.8;;
63690;SDS011;49837;57.280;27.070;2022-12-13T01:24:05;4.0;;;2.8;;
63690;SDS011;49837;57.280;27.070;2022-12-13T01:25:06;3.9;;;2.8;;
63690;SDS011;49837;57.280;27.070;2022-12-13T01:26:07;3.9;;;2.9;;
63690;SDS011;49837;57.280;27.070;2022-12-13T01:27:09;3.0;;;2.4;;
63690;SDS011;49837;57.280;27.070;2022-12-13T01:28:09;6.5;;;3.7;;
63690;SDS011;49837;57.280;27.070;2022-12-13T01:29:10;4.1;;;2.8;;
63690;SDS011;49837;57.280;27.070;2022-12-13T01:30:11;4.2;;;3.0;;
63690;SDS011;49837;57.280;27.070;2022-12-13T01:31:13;4.0;;;2.6;;
63690;SDS011;49837;57.280;27.070;2022-12-13T01:32:12;3.2;;;2.5;;
63690;SDS011;49837;57.280;27.070;2022-12-13T01:33:12;3.4;;;2.3;;
63690;SDS011;49837;57.280;27.070;2022-12-13T01:34:14;3.6;;;2.6;;
63690;SDS011;49837;57.280;27.070;2022-12-13T01:35:13;3.0;;;2.2;;
63690;SDS011;49837;57.280;27.070;2022-12-13T01:36:15;3.5;;;2.5;;
63690;SDS011;49837;57.280;27.070;2022-12-13T01:37:15;3.1;;;2.4;;
63690;SDS011;49837;57.280;27.070;2022-12-13T01:38:15;3.2;;;2.5;;
63690;SDS011;49837;57.280;27.070;2022-12-13T01:39:16;3.4;;;2.4;;
63690;SDS011;49837;57.280;27.070;2022-12-13T01:40:16;3.8;;;2.5;;
63690;SDS011;49837;57.280;27.070;2022-12-13T01:41:18;3.0;;;2.3;;
63690;SDS011;49837;57.280;27.070;2022-12-13T01:42:18;3.8;;;2.4;;
63690;SDS011;49837;57.280;27.070;2022-12-13T01:43:18;3.5;;;2.4;;
63690;SDS011;49837;57.280;27.070;2022-12-13T01:45:25;3.7;;;2.6;;
63690;SDS011;49837;57.280;27.070;2022-12-13T01:46:23;3.2;;;2.4;;
63690;SDS011;49837;57.280;27.070;2022-12-13T01:47:42;3.3;;;2.5;;
63690;SDS011;49837;57.280;27.070;2022-12-13T01:48:27;4.7;;;2.4;;
63690;SDS011;49837;57.280;27.070;2022-12-13T01:49:27;3.5;;;2.6;;
63690;SDS011;49837;57.280;27.070;2022-12-13T01:50:29;3.5;;;2.5;;
63690;SDS011;49837;57.280;27.070;2022-12-13T01:51:38;3.3;;;2.8;;
63690;SDS011;49837;57.280;27.070;2022-12-13T01:52:31;3.8;;;2.5;;
63690;SDS011;49837;57.280;27.070;2022-12-13T01:53:32;3.2;;;2.4;;
63690;SDS011;49837;57.280;27.070;2022-12-13T01:54:35;2.8;;;2.2;;
63690;SDS011;49837;57.280;27.070;2022-12-13T01:55:37;2.9;;;2.3;;
63690;SDS011;49837;57.280;27.070;2022-12-13T01:56:40;3.5;;;2.5;;
63690;SDS011;49837;57.280;27.070;2022-12-13T01:57:42;3.4;;;2.3;;
63690;SDS011;49837;57.280;27.070;2022-12-13T01:58:43;2.8;;;2.2;;
63690;SDS011;49837;57.280;27.070;2022-12-13T01:59:43;2.7;;;2.2;;
63690;SDS011;49837;57.280;27.070;2022-12-13T02:00:43;2.9;;;2.2;;
63690;SDS011;49837;57.280;27.070;2022-12-13T02:01:44;3.1;;;2.3;;
63690;SDS011;49837;57.280;27.070;2022-12-13T02:02:44;2.9;;;2.2;;
63690;SDS011;49837;57.280;27.070;2022-12-13T02:03:44;3.1;;;2.2;;
63690;SDS011;49837;57.280;27.070;2022-12-13T02:04:59;3.5;;;2.3;;
63690;SDS011;49837;57.280;27.070;2022-12-13T02:05:53;3.5;;;2.3;;
63690;SDS011;49837;57.280;27.070;2022-12-13T02:06:52;3.0;;;2.3;;
63690;SDS011;49837;57.280;27.070;2022-12-13T02:07:53;3.1;;;2.2;;
63690;SDS011;49837;57.280;27.070;2022-12-13T02:08:53;2.8;;;2.1;;
63690;SDS011;49837;57.280;27.070;2022-12-13T02:09:54;3.1;;;2.3;;
63690;SDS011;49837;57.280;27.070;2022-12-13T02:10:54;2.7;;;2.1;;
63690;SDS011;49837;57.280;27.070;2022-12-13T02:11:54;2.6;;;2.2;;
63690;SDS011;49837;57.280;27.070;2022-12-13T02:12:55;3.3;;;2.7;;
63690;SDS011;49837;57.280;27.070;2022-12-13T02:13:55;2.8;;;2.4;;
63690;SDS011;49837;57.280;27.070;2022-12-13T02:14:56;2.4;;;2.1;;
63690;SDS011;49837;57.280;27.070;2022-12-13T02:17:00;2.7;;;2.0;;
63690;SDS011;49837;57.280;27.070;2022-12-13T02:19:18;3.3;;;2.2;;
63690;SDS011;49837;57.280;27.070;2022-12-13T02:21:15;5.7;;;2.4;;
63690;SDS011;49837;57.280;27.070;2022-12-13T02:26:25;3.9;;;2.2;;
63690;SDS011;49837;57.280;27.070;2022-12-13T02:30:30;2.4;;;2.0;;
63690;SDS011;49837;57.280;27.070;2022-12-13T02:31:38;2.1;;;1.9;;
63690;SDS011;49837;57.280;27.070;2022-12-13T02:32:55;2.4;;;2.0;;
63690;SDS011;49837;57.280;27.070;2022-12-13T02:33:49;3.4;;;1.9;;
63690;SDS011;49837;57.280;27.070;2022-12-13T02:34:44;2.4;;;2.0;;
63690;SDS011;49837;57.280;27.070;2022-12-13T02:35:51;2.4;;;2.0;;
63690;SDS011;49837;57.280;27.070;2022-12-13T02:36:46;2.5;;;2.0;;
63690;SDS011;49837;57.280;27.070;2022-12-13T02:37:47;2.9;;;2.1;;
63690;SDS011;49837;57.280;27.070;2022-12-13T02:38:52;2.8;;;2.1;;
63690;SDS011;49837;57.280;27.070;2022-12-13T02:39:58;2.5;;;2.0;;
63690;SDS011;49837;57.280;27.070;2022-12-13T02:43:07;2.5;;;2.0;;
63690;SDS011;49837;57.280;27.070;2022-12-13T02:44:20;2.4;;;1.9;;
63690;SDS011;49837;57.280;27.070;2022-12-13T02:45:12;3.2;;;2.2;;
63690;SDS011;49837;57.280;27.070;2022-12-13T02:46:12;2.4;;;2.0;;
63690;SDS011;49837;57.280;27.070;2022-12-13T02:47:16;2.4;;;2.0;;
63690;SDS011;49837;57.280;27.070;2022-12-13T02:48:21;2.5;;;2.0;;
63690;SDS011;49837;57.280;27.070;2022-12-13T02:49:23;4.0;;;2.1;;
63690;SDS011;49837;57.280;27.070;2022-12-13T02:50:25;2.5;;;2.0;;
63690;SDS011;49837;57.280;27.070;2022-12-13T02:51:25;2.1;;;1.9;;
63690;SDS011;49837;57.280;27.070;2022-12-13T02:52:26;2.5;;;2.0;;
63690;SDS011;49837;57.280;27.070;2022-12-13T02:53:27;2.7;;;2.0;;
63690;SDS011;49837;57.280;27.070;2022-12-13T02:54:29;2.1;;;1.8;;
63690;SDS011;49837;57.280;27.070;2022-12-13T02:55:30;2.2;;;1.8;;
63690;SDS011;49837;57.280;27.070;2022-12-13T02:56:30;2.8;;;2.1;;
63690;SDS011;49837;57.280;27.070;2022-12-13T02:57:35;2.5;;;2.0;;
63690;SDS011;49837;57.280;27.070;2022-12-13T02:58:35;2.5;;;2.0;;
63690;SDS011;49837;57.280;27.070;2022-12-13T02:59:36;2.9;;;1.9;;
63690;SDS011;49837;57.280;27.070;2022-12-13T03:00:54;3.6;;;2.1;;
63690;SDS011;49837;57.280;27.070;2022-12-13T03:02:03;2.7;;;1.8;;
63690;SDS011;49837;57.280;27.070;2022-12-13T03:02:45;2.6;;;1.9;;
63690;SDS011;49837;57.280;27.070;2022-12-13T03:03:51;3.0;;;1.7;;
63690;SDS011;49837;57.280;27.070;2022-12-13T03:05:12;4.2;;;2.2;;
63690;SDS011;49837;57.280;27.070;2022-12-13T03:06:05;3.0;;;1.9;;
63690;SDS011;49837;57.280;27.070;2022-12-13T03:07:06;3.0;;;1.9;;
63690;SDS011;49837;57.280;27.070;2022-12-13T03:08:10;2.5;;;1.9;;
63690;SDS011;49837;57.280;27.070;2022-12-13T03:10:09;2.5;;;2.1;;
63690;SDS011;49837;57.280;27.070;2022-12-13T03:11:15;2.6;;;2.1;;
63690;SDS011;49837;57.280;27.070;2022-12-13T03:12:27;2.5;;;2.0;;
63690;SDS011;49837;57.280;27.070;2022-12-13T03:13:17;2.4;;;2.1;;
63690;SDS011;49837;57.280;27.070;2022-12-13T03:14:15;2.6;;;1.9;;
63690;SDS011;49837;57.280;27.070;2022-12-13T03:17:25;2.3;;;1.8;;
63690;SDS011;49837;57.280;27.070;2022-12-13T03:18:27;2.2;;;1.8;;
63690;SDS011;49837;57.280;27.070;2022-12-13T03:19:27;2.3;;;1.8;;
63690;SDS011;49837;57.280;27.070;2022-12-13T03:20:28;2.0;;;1.8;;
63690;SDS011;49837;57.280;27.070;2022-12-13T03:21:28;2.4;;;1.8;;
63690;SDS011;49837;57.280;27.070;2022-12-13T03:22:31;2.1;;;1.8;;
63690;SDS011;49837;57.280;27.070;2022-12-13T03:23:30;2.6;;;1.9;;
63690;SDS011;49837;57.280;27.070;2022-12-13T03:24:30;1.8;;;1.6;;
63690;SDS011;49837;57.280;27.070;2022-12-13T03:25:30;2.5;;;2.0;;
63690;SDS011;49837;57.280;27.070;2022-12-13T03:26:31;2.4;;;1.8;;
63690;SDS011;49837;57.280;27.070;2022-12-13T03:27:31;2.9;;;2.0;;
63690;SDS011;49837;57.280;27.070;2022-12-13T03:28:31;2.5;;;2.0;;
63690;SDS011;49837;57.280;27.070;2022-12-13T03:29:32;3.2;;;1.9;;
63690;SDS011;49837;57.280;27.070;2022-12-13T03:30:33;2.6;;;2.1;;
63690;SDS011;49837;57.280;27.070;2022-12-13T03:31:33;2.8;;;2.1;;
63690;SDS011;49837;57.280;27.070;2022-12-13T03:32:33;2.5;;;2.1;;
63690;SDS011;49837;57.280;27.070;2022-12-13T03:33:34;3.0;;;2.0;;
63690;SDS011;49837;57.280;27.070;2022-12-13T03:34:34;2.6;;;1.9;;
63690;SDS011;49837;57.280;27.070;2022-12-13T03:35:36;2.2;;;2.0;;
63690;SDS011;49837;57.280;27.070;2022-12-13T03:36:41;2.3;;;2.0;;
63690;SDS011;49837;57.280;27.070;2022-12-13T03:37:41;3.1;;;2.1;;
63690;SDS011;49837;57.280;27.070;2022-12-13T03:38:42;3.6;;;2.8;;
63690;SDS011;49837;57.280;27.070;2022-12-13T03:39:42;3.3;;;2.3;;
63690;SDS011;49837;57.280;27.070;2022-12-13T03:40:42;2.7;;;2.0;;
63690;SDS011;49837;57.280;27.070;2022-12-13T03:41:43;3.4;;;2.5;;
63690;SDS011;49837;57.280;27.070;2022-12-13T03:42:43;3.7;;;2.6;;
63690;SDS011;49837;57.280;27.070;2022-12-13T03:43:44;3.2;;;2.4;;
63690;SDS011;49837;57.280;27.070;2022-12-13T03:44:44;3.0;;;2.2;;
63690;SDS011;49837;57.280;27.070;2022-12-13T03:45:44;3.3;;;2.4;;
63690;SDS011;49837;57.280;27.070;2022-12-13T03:46:45;2.7;;;2.3;;
63690;SDS011;49837;57.280;27.070;2022-12-13T03:47:45;3.0;;;2.3;;
63690;SDS011;49837;57.280;27.070;2022-12-13T03:48:46;2.9;;;2.4;;
63690;SDS011;49837;57.280;27.070;2022-12-13T03:49:46;2.5;;;2.1;;
63690;SDS011;49837;57.280;27.070;2022-12-13T03:50:50;2.9;;;2.5;;
63690;SDS011;49837;57.280;27.070;2022-12-13T03:51:50;3.5;;;2.7;;
63690;SDS011;49837;57.280;27.070;2022-12-13T03:52:56;3.9;;;2.3;;
63690;SDS011;49837;57.280;27.070;2022-12-13T03:53:54;4.2;;;3.1;;
63690;SDS011;49837;57.280;27.070;2022-12-13T03:54:55;4.4;;;3.0;;
63690;SDS011;49837;57.280;27.070;2022-12-13T03:55:55;4.1;;;2.4;;
63690;SDS011;49837;57.280;27.070;2022-12-13T03:56:56;3.9;;;2.6;;
63690;SDS011;49837;57.280;27.070;2022-12-13T03:57:57;5.7;;;3.5;;
63690;SDS011;49837;57.280;27.070;2022-12-13T03:59:01;3.8;;;2.3;;
63690;SDS011;49837;57.280;27.070;2022-12-13T04:00:03;3.4;;;2.4;;
63690;SDS011;49837;57.280;27.070;2022-12-13T04:01:12;6.9;;;4.5;;
63690;SDS011;49837;57.280;27.070;2022-12-13T04:02:05;7.4;;;4.3;;
63690;SDS011;49837;57.280;27.070;2022-12-13T04:03:05;6.8;;;4.3;;
63690;SDS011;49837;57.280;27.070;2022-12-13T04:04:05;4.7;;;3.1;;
63690;SDS011;49837;57.280;27.070;2022-12-13T04:05:06;3.9;;;2.8;;
63690;SDS011;49837;57.280;27.070;2022-12-13T04:06:06;4.8;;;3.1;;
63690;SDS011;49837;57.280;27.070;2022-12-13T04:07:07;4.6;;;3.5;;
63690;SDS011;49837;57.280;27.070;2022-12-13T04:08:08;3.9;;;3.0;;
63690;SDS011;49837;57.280;27.070;2022-12-13T04:09:13;4.5;;;2.8;;
63690;SDS011;49837;57.280;27.070;2022-12-13T04:10:13;3.3;;;2.3;;
63690;SDS011;49837;57.280;27.070;2022-12-13T04:11:16;4.2;;;2.5;;
63690;SDS011;49837;57.280;27.070;2022-12-13T04:12:17;3.0;;;2.3;;
63690;SDS011;49837;57.280;27.070;2022-12-13T04:13:17;3.5;;;2.5;;
63690;SDS011;49837;57.280;27.070;2022-12-13T04:14:18;3.3;;;2.7;;
63690;SDS011;49837;57.280;27.070;2022-12-13T04:15:19;4.0;;;3.1;;
63690;SDS011;49837;57.280;27.070;2022-12-13T04:16:19;3.6;;;2.8;;
63690;SDS011;49837;57.280;27.070;2022-12-13T04:17:19;3.9;;;2.8;;
63690;SDS011;49837;57.280;27.070;2022-12-13T04:18:20;5.1;;;3.1;;
63690;SDS011;49837;57.280;27.070;2022-12-13T04:19:20;4.7;;;3.0;;
63690;SDS011;49837;57.280;27.070;2022-12-13T04:20:21;3.7;;;2.7;;
63690;SDS011;49837;57.280;27.070;2022-12-13T04:21:21;3.4;;;2.5;;
63690;SDS011;49837;57.280;27.070;2022-12-13T04:22:21;4.1;;;3.1;;
63690;SDS011;49837;57.280;27.070;2022-12-13T04:23:22;3.4;;;2.6;;
63690;SDS011;49837;57.280;27.070;2022-12-13T04:24:23;3.5;;;2.5;;
63690;SDS011;49837;57.280;27.070;2022-12-13T04:25:23;3.0;;;2.4;;
63690;SDS011;49837;57.280;27.070;2022-12-13T04:26:23;2.8;;;2.4;;
63690;SDS011;49837;57.280;27.070;2022-12-13T04:27:23;3.2;;;2.4;;
63690;SDS011;49837;57.280;27.070;2022-12-13T04:28:24;3.5;;;2.5;;
63690;SDS011;49837;57.280;27.070;2022-12-13T04:29:24;3.0;;;2.4;;
63690;SDS011;49837;57.280;27.070;2022-12-13T04:30:25;5.8;;;4.3;;
63690;SDS011;49837;57.280;27.070;2022-12-13T04:31:26;3.6;;;2.9;;
63690;SDS011;49837;57.280;27.070;2022-12-13T04:32:26;4.2;;;2.9;;
63690;SDS011;49837;57.280;27.070;2022-12-13T04:33:26;4.6;;;3.1;;
63690;SDS011;49837;57.280;27.070;2022-12-13T04:34:27;3.2;;;2.3;;
63690;SDS011;49837;57.280;27.070;2022-12-13T04:35:27;3.6;;;2.5;;
63690;SDS011;49837;57.280;27.070;2022-12-13T04:36:28;2.9;;;2.3;;
63690;SDS011;49837;57.280;27.070;2022-12-13T04:37:28;3.4;;;2.5;;
63690;SDS011;49837;57.280;27.070;2022-12-13T04:38:29;2.3;;;2.1;;
63690;SDS011;49837;57.280;27.070;2022-12-13T04:39:29;3.3;;;2.5;;
63690;SDS011;49837;57.280;27.070;2022-12-13T04:40:30;4.8;;;2.5;;
63690;SDS011;49837;57.280;27.070;2022-12-13T04:41:37;3.2;;;2.6;;
63690;SDS011;49837;57.280;27.070;2022-12-13T04:42:35;3.4;;;2.4;;
63690;SDS011;49837;57.280;27.070;2022-12-13T04:43:35;2.9;;;2.3;;
63690;SDS011;49837;57.280;27.070;2022-12-13T04:44:36;2.6;;;1.9;;
63690;SDS011;49837;57.280;27.070;2022-12-13T04:45:37;3.2;;;2.3;;
63690;SDS011;49837;57.280;27.070;2022-12-13T04:46:37;3.4;;;2.5;;
63690;SDS011;49837;57.280;27.070;2022-12-13T04:47:37;2.3;;;1.9;;
63690;SDS011;49837;57.280;27.070;2022-12-13T04:48:38;2.8;;;2.1;;
63690;SDS011;49837;57.280;27.070;2022-12-13T04:49:38;2.3;;;1.9;;
63690;SDS011;49837;57.280;27.070;2022-12-13T04:50:39;2.5;;;2.2;;
63690;SDS011;49837;57.280;27.070;2022-12-13T04:51:39;3.0;;;2.1;;
63690;SDS011;49837;57.280;27.070;2022-12-13T04:52:39;3.6;;;2.3;;
63690;SDS011;49837;57.280;27.070;2022-12-13T04:53:40;3.2;;;2.3;;
63690;SDS011;49837;57.280;27.070;2022-12-13T04:54:40;3.3;;;2.5;;
63690;SDS011;49837;57.280;27.070;2022-12-13T04:55:41;3.1;;;2.4;;
63690;SDS011;49837;57.280;27.070;2022-12-13T04:56:41;2.7;;;2.2;;
63690;SDS011;49837;57.280;27.070;2022-12-13T04:57:41;3.3;;;2.5;;
63690;SDS011;49837;57.280;27.070;2022-12-13T04:58:42;3.1;;;2.3;;
63690;SDS011;49837;57.280;27.070;2022-12-13T04:59:43;3.3;;;2.4;;
63690;SDS011;49837;57.280;27.070;2022-12-13T05:00:43;3.7;;;2.3;;
63690;SDS011;49837;57.280;27.070;2022-12-13T05:01:44;2.8;;;2.2;;
63690;SDS011;49837;57.280;27.070;2022-12-13T05:02:44;2.8;;;2.2;;
63690;SDS011;49837;57.280;27.070;2022-12-13T05:03:44;3.7;;;2.5;;
63690;SDS011;49837;57.280;27.070;2022-12-13T05:04:45;3.6;;;2.5;;
63690;SDS011;49837;57.280;27.070;2022-12-13T05:05:49;2.9;;;2.4;;
63690;SDS011;49837;57.280;27.070;2022-12-13T05:06:50;2.9;;;2.2;;
63690;SDS011;49837;57.280;27.070;2022-12-13T05:07:50;3.6;;;2.5;;
63690;SDS011;49837;57.280;27.070;2022-12-13T05:08:50;3.3;;;2.2;;
63690;SDS011;49837;57.280;27.070;2022-12-13T05:09:51;2.6;;;2.3;;
63690;SDS011;49837;57.280;27.070;2022-12-13T05:10:52;2.7;;;2.2;;
63690;SDS011;49837;57.280;27.070;2022-12-13T05:11:52;7.8;;;6.9;;
63690;SDS011;49837;57.280;27.070;2022-12-13T05:12:52;16.8;;;5.3;;
63690;SDS011;49837;57.280;27.070;2022-12-13T05:13:53;11.3;;;4.0;;
63690;SDS011;49837;57.280;27.070;2022-12-13T05:14:53;7.0;;;5.0;;
63690;SDS011;49837;57.280;27.070;2022-12-13T05:15:57;10.1;;;5.7;;
63690;SDS011;49837;57.280;27.070;2022-12-13T05:16:55;6.7;;;3.9;;
63690;SDS011;49837;57.280;27.070;2022-12-13T05:17:59;4.0;;;2.6;;
63690;SDS011;49837;57.280;27.070;2022-12-13T05:18:56;4.4;;;3.0;;
63690;SDS011;49837;57.280;27.070;2022-12-13T05:19:57;3.6;;;2.3;;
63690;SDS011;49837;57.280;27.070;2022-12-13T05:21:06;3.4;;;2.6;;
63690;SDS011;49837;57.280;27.070;2022-12-13T05:22:00;2.9;;;2.6;;
63690;SDS011;49837;57.280;27.070;2022-12-13T05:23:01;2.9;;;2.4;;
63690;SDS011;49837;57.280;27.070;2022-12-13T05:24:01;2.8;;;2.2;;
63690;SDS011;49837;57.280;27.070;2022-12-13T05:25:02;3.1;;;2.4;;
63690;SDS011;49837;57.280;27.070;2022-12-13T05:26:02;3.7;;;2.5;;
63690;SDS011;49837;57.280;27.070;2022-12-13T05:27:02;3.0;;;2.4;;
63690;SDS011;49837;57.280;27.070;2022-12-13T05:28:04;3.7;;;2.6;;
63690;SDS011;49837;57.280;27.070;2022-12-13T05:29:07;4.3;;;3.1;;
63690;SDS011;49837;57.280;27.070;2022-12-13T05:30:07;4.6;;;3.0;;
63690;SDS011;49837;57.280;27.070;2022-12-13T05:31:08;4.3;;;3.1;;
63690;SDS011;49837;57.280;27.070;2022-12-13T05:32:09;5.4;;;4.1;;
63690;SDS011;49837;57.280;27.070;2022-12-13T05:33:10;3.9;;;3.0;;
63690;SDS011;49837;57.280;27.070;2022-12-13T05:34:10;4.8;;;3.7;;
63690;SDS011;49837;57.280;27.070;2022-12-13T05:35:14;3.3;;;2.6;;
63690;SDS011;49837;57.280;27.070;2022-12-13T05:36:14;3.5;;;2.5;;
63690;SDS011;49837;57.280;27.070;2022-12-13T05:37:14;2.8;;;2.5;;
63690;SDS011;49837;57.280;27.070;2022-12-13T05:38:15;3.0;;;2.5;;
63690;SDS011;49837;57.280;27.070;2022-12-13T05:39:15;3.2;;;2.5;;
63690;SDS011;49837;57.280;27.070;2022-12-13T05:40:30;3.7;;;2.6;;
63690;SDS011;49837;57.280;27.070;2022-12-13T05:41:23;3.1;;;2.2;;
63690;SDS011;49837;57.280;27.070;2022-12-13T05:42:24;2.3;;;2.1;;
63690;SDS011;49837;57.280;27.070;2022-12-13T05:43:24;3.4;;;2.4;;
63690;SDS011;49837;57.280;27.070;2022-12-13T05:44:30;2.7;;;2.1;;
63690;SDS011;49837;57.280;27.070;2022-12-13T05:45:30;2.9;;;2.0;;
63690;SDS011;49837;57.280;27.070;2022-12-13T05:46:30;2.4;;;1.9;;
63690;SDS011;49837;57.280;27.070;2022-12-13T05:47:34;3.3;;;2.5;;
63690;SDS011;49837;57.280;27.070;2022-12-13T05:48:34;2.9;;;2.2;;
63690;SDS011;49837;57.280;27.070;2022-12-13T05:49:35;3.0;;;2.2;;
63690;SDS011;49837;57.280;27.070;2022-12-13T05:50:35;2.1;;;1.9;;
63690;SDS011;49837;57.280;27.070;2022-12-13T05:51:35;3.1;;;2.2;;
63690;SDS011;49837;57.280;27.070;2022-12-13T05:52:36;3.3;;;2.3;;
63690;SDS011;49837;57.280;27.070;2022-12-13T05:53:37;2.9;;;2.2;;
63690;SDS011;49837;57.280;27.070;2022-12-13T05:54:38;2.7;;;2.2;;
63690;SDS011;49837;57.280;27.070;2022-12-13T05:55:38;3.0;;;2.0;;
63690;SDS011;49837;57.280;27.070;2022-12-13T05:56:39;2.6;;;2.0;;
63690;SDS011;49837;57.280;27.070;2022-12-13T05:57:39;2.6;;;2.0;;
63690;SDS011;49837;57.280;27.070;2022-12-13T05:58:41;2.5;;;2.0;;
63690;SDS011;49837;57.280;27.070;2022-12-13T05:59:41;2.3;;;1.9;;
63690;SDS011;49837;57.280;27.070;2022-12-13T06:00:42;3.1;;;2.0;;
63690;SDS011;49837;57.280;27.070;2022-12-13T06:01:42;1.9;;;1.7;;
63690;SDS011;49837;57.280;27.070;2022-12-13T06:02:42;2.2;;;1.9;;
63690;SDS011;49837;57.280;27.070;2022-12-13T06:03:43;2.9;;;2.1;;
63690;SDS011;49837;57.280;27.070;2022-12-13T06:04:43;2.7;;;2.1;;
63690;SDS011;49837;57.280;27.070;2022-12-13T06:05:43;3.5;;;2.2;;
63690;SDS011;49837;57.280;27.070;2022-12-13T06:06:44;2.3;;;1.9;;
63690;SDS011;49837;57.280;27.070;2022-12-13T06:07:44;2.6;;;2.1;;
63690;SDS011;49837;57.280;27.070;2022-12-13T06:08:44;2.3;;;2.0;;
63690;SDS011;49837;57.280;27.070;2022-12-13T06:09:45;3.1;;;2.0;;
63690;SDS011;49837;57.280;27.070;2022-12-13T06:10:52;2.8;;;2.0;;
63690;SDS011;49837;57.280;27.070;2022-12-13T06:11:46;2.6;;;2.0;;
63690;SDS011;49837;57.280;27.070;2022-12-13T06:12:46;3.3;;;2.0;;
63690;SDS011;49837;57.280;27.070;2022-12-13T06:13:48;3.4;;;3.1;;
63690;SDS011;49837;57.280;27.070;2022-12-13T06:14:47;3.6;;;3.3;;
63690;SDS011;49837;57.280;27.070;2022-12-13T06:15:48;3.4;;;2.7;;
63690;SDS011;49837;57.280;27.070;2022-12-13T06:16:48;6.7;;;4.4;;
63690;SDS011;49837;57.280;27.070;2022-12-13T06:17:48;3.2;;;2.6;;
63690;SDS011;49837;57.280;27.070;2022-12-13T06:18:48;2.7;;;2.0;;
63690;SDS011;49837;57.280;27.070;2022-12-13T06:19:49;3.9;;;2.8;;
63690;SDS011;49837;57.280;27.070;2022-12-13T06:20:56;2.8;;;2.2;;
63690;SDS011;49837;57.280;27.070;2022-12-13T06:21:54;2.9;;;2.1;;
63690;SDS011;49837;57.280;27.070;2022-12-13T06:22:54;2.5;;;1.9;;
63690;SDS011;49837;57.280;27.070;2022-12-13T06:23:54;2.8;;;2.0;;
63690;SDS011;49837;57.280;27.070;2022-12-13T06:24:55;2.1;;;1.8;;
63690;SDS011;49837;57.280;27.070;2022-12-13T06:25:55;2.6;;;1.7;;
63690;SDS011;49837;57.280;27.070;2022-12-13T06:26:55;2.7;;;2.0;;
63690;SDS011;49837;57.280;27.070;2022-12-13T06:27:56;2.4;;;2.0;;
63690;SDS011;49837;57.280;27.070;2022-12-13T06:28:56;3.3;;;2.3;;